Skip Navigation Links Skip Navigation Links

Current Weather

Tanagra Airport, Greece

For information only: do not use for flight planning or navigation.
Latest weather
Observation time Sunday, September 20, 2020 3:50 PM EEST
Local time Sunday, September 20, 2020 4:29 PM EEST
Flight conditions Visual Meteorological Conditions
Winds
Wind direction North-Northwest (340°)
Wind speed 14 mph
Visibility 6.2 mi.
Sky condition
Ceiling unlimited
Cloud layer few clouds 3,000 ft.
Temperature 75°F
Dewpoint 50°F
Altimeter 30.00 in.Hg
Derived measurements
Relative humidity 41%
Density altitude 1275 ft.
METAR LGTG 201250Z 34012KT 9999 FEW030 24/10 Q1016 BLU

Settings

Location code

InnerDrive.Weather 4.0.6770.0 Release CLR 4.0.30319.42000
Copyright ©2018 Inner Drive Technology. All rights reserved. Portions Copyright ©1986-2018 David Braverman.

Find weather

Site navigation


Skip Navigation Links

Place info

Page info

PayPal - The safer, easier way to pay online!

Return home.

Copyright ©2020 Inner Drive Technology. Purveyors of fine, hand-crafted computer software. Page printed 2020-09-20T13:29:04 UTC.